• Join FlightAware (Why Join?)
  • Login
  • US Flag 
07:41PM EDT


 

Airport Tracker/Info


-or-


 

Live Flight TrackerFlight Track Log ✈ USC110 ✈ 18-Jun-2013 ✈ KLCK - KCLT

Flight Track Log - Related Links

Times and Time Zones

All times are in EDT time to prevent confusion due to time zone crossing. See the USC110 flight status page for this flight to view local times or setup timezone preferences in your user account.

Time Position Orientation Groundspeed Altitude Reporting Facility
EDT Latitude Longitude Course Direction KTS MPH feet Rate Location/Type
05:36AM 39.8058 -82.9394 175° South 86 99 1,000  Level Indianapolis Center
05:37AM 39.7769 -82.9361 175° South 111 128 1,700 540 Climbing Indianapolis Center
05:38AM 39.7597 -82.9267 157° South 106 122 2,000 780 Climbing Indianapolis Center
05:39AM 39.7236 -82.9189 171° South 119 137 3,000 840 Climbing Indianapolis Center
05:40AM 39.6911 -82.9089 167° South 120 138 3,800 780 Climbing Indianapolis Center
05:41AM 39.6592 -82.8989 166° South 118 136 4,600 780 Climbing Indianapolis Center
05:42AM 39.6258 -82.8889 167° South 119 137 5,400 780 Climbing Indianapolis Center
05:43AM 39.5931 -82.8775 165° South 121 139 6,200 720 Climbing Indianapolis Center
05:44AM 39.5594 -82.8656 165° South 123 142 6,900 600 Climbing Indianapolis Center
05:45AM 39.5236 -82.8525 164° South 131 151 7,500 540 Climbing Indianapolis Center
05:46AM 39.4861 -82.8381 163° South 137 158 8,100 540 Climbing Indianapolis Center
05:47AM 39.4472 -82.8250 165° South 140 161 8,600 360 Climbing Indianapolis Center
05:48AM 39.4144 -82.8139 165° South 143 165 8,900 120 Climbing Indianapolis Center
05:49AM 39.3714 -82.8000 166° South 152 175 8,900  Level Indianapolis Center
05:50AM 39.3281 -82.7850 165° South 159 183 8,900  Level Indianapolis Center
05:51AM 39.2850 -82.7692 164° South 159 183 8,900  Level Indianapolis Center
05:52AM 39.2411 -82.7561 167° South 160 184 8,900  Level Indianapolis Center
05:53AM 39.1981 -82.7419 166° South 159 183 9,000  Climbing Indianapolis Center
05:54AM 39.1539 -82.7258 164° South 155 178 9,000  Level Indianapolis Center
05:55AM 39.1097 -82.7119 166° South 162 186 9,000  Level Indianapolis Center
05:56AM 39.0669 -82.6972 165° South 159 183 9,000  Level Indianapolis Center
05:57AM 39.0231 -82.6839 167° South 162 186 9,000  Level Indianapolis Center
05:58AM 38.9814 -82.6689 164° South 157 181 9,000  Level Indianapolis Center
05:59AM 38.9375 -82.6544 166° South 160 184 9,000  Level Indianapolis Center
06:00AM 38.8919 -82.6408 167° South 166 191 9,000  Level Indianapolis Center
06:01AM 38.8478 -82.6233 163° South 167 192 9,000  Level Indianapolis Center
06:02AM 38.8058 -82.6106 167° South 158 182 9,000  Level Indianapolis Center
06:03AM 38.7644 -82.5972 166° South 155 178 9,000  Level Indianapolis Center
06:04AM 38.7236 -82.5836 165° South 153 176 9,000  Level Indianapolis Center
06:05AM 38.6844 -82.5703 165° South 149 171 9,000  Level Indianapolis Center
06:06AM 38.6417 -82.5533 163° South 148 170 9,000  Level Indianapolis Center
06:07AM 38.6058 -82.5411 165° South 137 158 9,000  Level Indianapolis Center
06:08AM 38.5669 -82.5283 166° South 141 162 9,000  Level Indianapolis Center
06:09AM 38.5272 -82.5189 169° South 144 166 9,000  Level Indianapolis Center
06:10AM 38.4894 -82.5064 165° South 141 162 9,000  Level Indianapolis Center
06:11AM 38.4442 -82.4908 165° South 142 163 9,000  Level Indianapolis Center
06:12AM 38.4086 -82.4775 164° South 140 161 9,000  Level Indianapolis Center
06:13AM 38.3700 -82.4650 166° South 141 162 9,000  Level Indianapolis Center
06:14AM 38.3308 -82.4517 165° South 144 166 9,000  Level Indianapolis Center
06:15AM 38.2906 -82.4392 166° South 147 169 9,000  Level Indianapolis Center
06:16AM 38.2506 -82.4272 167° South 147 169 9,000  Level Indianapolis Center
06:17AM 38.2111 -82.4142 165° South 148 170 9,000  Level Indianapolis Center
06:18AM 38.1731 -82.4025 166° South 144 166 9,000  Level Indianapolis Center
06:19AM 38.1347 -82.3892 165° South 142 163 9,000  Level Indianapolis Center
06:20AM 38.0931 -82.3742 164° South 143 165 9,000  Level Indianapolis Center
06:21AM 38.0550 -82.3619 166° South 143 165 9,000  Level Indianapolis Center
06:22AM 38.0161 -82.3483 165° South 143 165 9,000  Level Indianapolis Center
06:23AM 37.9778 -82.3378 168° South 142 163 9,000  Level Indianapolis Center
06:24AM 37.9392 -82.3244 165° South 142 163 9,000  Level Indianapolis Center
06:25AM 37.9025 -82.3100 163° South 140 161 9,000  Level Indianapolis Center
06:26AM 37.8653 -82.2989 167° South 138 159 9,000  Level Indianapolis Center
06:27AM 37.8281 -82.2864 165° South 138 159 9,000  Level Indianapolis Center
06:28AM 37.7897 -82.2733 165° South 140 161 9,000  Level Indianapolis Center
06:29AM 37.7514 -82.2619 167° South 141 162 9,000  Level Indianapolis Center
06:30AM 37.7136 -82.2494 165° South 141 162 9,000 -60 Level Indianapolis Center
06:31AM 37.6753 -82.2389 168° South 140 161 8,900  Descending Indianapolis Center
06:32AM 37.6394 -82.2256 164° South 137 158 9,000  Climbing Indianapolis Center
06:33AM 37.6014 -82.2136 166° South 138 159 8,900  Descending Indianapolis Center
06:34AM 37.5561 -82.1992 166° South 142 163 9,000  Climbing Indianapolis Center
06:35AM 37.5186 -82.1869 166° South 140 161 9,000 -60 Level Indianapolis Center
06:36AM 37.4808 -82.1758 167° South 139 160 8,900  Descending Indianapolis Center
06:37AM 37.4408 -82.1636 166° South 144 166 9,000  Climbing Indianapolis Center
06:38AM 37.4028 -82.1497 164° South 142 163 9,000 -60 Level Indianapolis Center
06:39AM 37.3631 -82.1358 164° South 145 167 8,900 -60 Descending Indianapolis Center
06:40AM 37.3228 -82.1228 166° South 148 170 8,900  Level Indianapolis Center
06:41AM 37.2831 -82.1078 163° South 148 170 9,000  Climbing Indianapolis Center
06:42AM 37.2425 -82.0969 168° South 149 171 9,000  Level Indianapolis Center
06:43AM 37.2022 -82.0828 164° South 149 171 9,000  Level Indianapolis Center
06:44AM 37.1636 -82.0708 166° South 144 166 9,000 -60 Level Indianapolis Center
06:45AM 37.1258 -82.0586 166° South 141 162 8,900 -60 Descending Indianapolis Center
06:46AM 37.0886 -82.0453 164° South 139 160 8,900  Level Indianapolis Center
06:47AM 37.0503 -82.0347 168° South 140 161 8,900  Level Indianapolis Center
06:48AM 37.0114 -82.0217 165° South 143 165 8,900  Level Indianapolis Center
06:49AM 36.9742 -82.0094 165° South 140 161 9,000  Climbing Indianapolis Center
06:50AM 36.9342 -81.9983 167° South 145 167 9,000 -60 Level Indianapolis Center
06:51AM 36.8956 -81.9858 165° South 144 166 8,900 -60 Descending Indianapolis Center
06:52AM 36.8572 -81.9736 166° South 142 163 8,900  Level Indianapolis Center
06:53AM 36.8183 -81.9622 167° South 142 163 9,000  Climbing Indianapolis Center
06:54AM 36.7739 -81.9475 165° South 142 163 9,000 -60 Level Indianapolis Center
06:55AM 36.7350 -81.9342 165° South 143 165 8,900  Descending Indianapolis Center
06:56AM 36.6958 -81.9233 167° South 143 165 9,000  Climbing Indianapolis Center
06:57AM 36.6583 -81.9111 165° South 140 161 8,900 -60 Descending Indianapolis Center
06:59AM 36.6131 -81.8972 166° South 158 182 8,900  Level Atlanta Center